South Point, Ohio
Current Conditions -  °F | °C
As of 1:51 PM on Tuesday 21 Oct 2014 (Local Time) from KHTS Reporting Station
Overcast Overcast  
Wind Chill: 53°   Ceiling: 5000
Heat Index: 53°   Visibility: 10mi
Dew Point: 41°   Wind: 8mph
Humidity: 64%   Direction: 300°WNW
Pressure: 29.99"   Gusts: NA
Location:  38.42°N, 82.59°W
Report Text: KHTS 211751Z 30007KT 250V340 10SM FEW035 OVC050 12/05 A2999 RMK AO2 SLP153 T01170050 10128 20094 51010
Loading
Personal Weather Stations






























Interactive Weather Map
Tropical Storm Tracking
New forecast layout! Learn more

10-Day Weather Forecast

Advertisements
Track Severe Weather on mobile